Air Resources Laboratory banner image
Air Resources Laboratory web site National Oceanic and Atmospheric Administration (NOAA)

dc metar


KDCA 161552Z 13003KT 10SM FEW045 32/22 A2999 RMK AO2 SLP156 T03220222=